createdAt,value
2022-09-01T00:01:43.425Z,16.99
2022-09-01T00:04:13.481Z,16.92
2022-09-01T00:06:41.004Z,16.98
2022-09-01T00:09:11.407Z,16.91
2022-09-01T00:11:40.337Z,16.84
2022-09-01T00:14:09.890Z,16.70
2022-09-01T00:16:56.465Z,16.72
2022-09-01T00:19:23.940Z,16.80
2022-09-01T00:21:50.394Z,16.82
2022-09-01T00:24:17.916Z,16.80
2022-09-01T00:26:44.977Z,16.71
2022-09-01T00:29:11.801Z,16.59
2022-09-01T00:31:38.908Z,16.71
2022-09-01T00:34:05.418Z,16.65
2022-09-01T00:36:32.105Z,16.49
2022-09-01T00:38:58.583Z,16.62
2022-09-01T00:41:27.776Z,16.50
2022-09-01T00:43:57.851Z,16.41
2022-09-01T00:46:33.546Z,16.47
2022-09-01T00:49:08.807Z,16.57
2022-09-01T00:51:38.545Z,16.46
2022-09-01T00:54:08.462Z,16.37
2022-09-01T00:56:37.798Z,16.42
2022-09-01T00:59:07.038Z,16.43
2022-09-01T01:01:36.718Z,16.45
2022-09-01T01:04:05.704Z,16.43
2022-09-01T01:06:32.995Z,16.40
2022-09-01T01:09:01.291Z,16.34
2022-09-01T01:11:31.967Z,16.26
2022-09-01T01:14:11.946Z,16.26
2022-09-01T01:16:44.194Z,16.35
2022-09-01T01:19:39.881Z,16.25
2022-09-01T01:22:31.197Z,16.25
2022-09-01T01:24:58.332Z,16.22
2022-09-01T01:27:25.060Z,16.11
2022-09-01T01:29:52.878Z,16.02
2022-09-01T01:32:19.335Z,16.15
2022-09-01T01:34:48.753Z,16.21
2022-09-01T01:37:15.386Z,16.08
2022-09-01T01:39:44.326Z,16.14
2022-09-01T01:42:12.335Z,16.07
2022-09-01T01:44:39.740Z,16.17
2022-09-01T01:47:12.887Z,16.21
2022-09-01T01:49:44.154Z,16.13
2022-09-01T01:52:16.287Z,16.16
2022-09-01T01:54:46.068Z,16.19
2022-09-01T01:57:17.128Z,16.22
2022-09-01T01:59:45.338Z,16.18
2022-09-01T02:02:12.898Z,16.19
2022-09-01T02:04:40.659Z,16.20
2022-09-01T02:07:13.235Z,16.19
2022-09-01T02:09:40.926Z,16.24
2022-09-01T02:12:08.828Z,16.18
2022-09-01T02:14:35.325Z,16.11
2022-09-01T02:17:03.668Z,16.07
2022-09-01T02:19:30.168Z,16.20
2022-09-01T02:21:56.657Z,16.21
2022-09-01T02:24:24.043Z,16.13
2022-09-01T02:26:50.625Z,16.08
2022-09-01T02:29:21.982Z,16.17
2022-09-01T02:31:52.025Z,16.22
2022-09-01T02:34:20.551Z,16.10
2022-09-01T02:36:50.241Z,16.15
2022-09-01T02:39:20.889Z,16.19
2022-09-01T02:41:47.457Z,16.03
2022-09-01T02:44:14.717Z,16.03
2022-09-01T02:46:45.199Z,16.04
2022-09-01T02:49:29.991Z,15.88
2022-09-01T02:51:59.491Z,15.98
2022-09-01T02:54:27.817Z,15.97
2022-09-01T02:56:54.719Z,16.04
2022-09-01T02:59:23.248Z,15.88
2022-09-01T03:01:51.714Z,15.91
2022-09-01T03:04:19.897Z,15.90
2022-09-01T03:06:47.349Z,15.92
2022-09-01T03:09:16.993Z,15.90
2022-09-01T03:11:48.102Z,15.93
2022-09-01T03:14:14.976Z,15.80
2022-09-01T03:16:41.674Z,15.93
2022-09-01T03:19:09.694Z,15.84
2022-09-01T03:21:40.895Z,15.80
2022-09-01T03:24:10.136Z,15.75
2022-09-01T03:26:36.610Z,15.78
2022-09-01T03:29:04.248Z,15.80
2022-09-01T03:31:31.886Z,15.71
2022-09-01T03:33:59.016Z,15.68
2022-09-01T03:36:27.700Z,15.66
2022-09-01T03:38:55.185Z,15.74
2022-09-01T03:41:25.220Z,15.70
2022-09-01T03:43:55.027Z,15.66
2022-09-01T03:46:22.340Z,15.58
2022-09-01T03:48:58.473Z,15.66
2022-09-01T03:51:27.092Z,15.67
2022-09-01T03:53:55.038Z,15.63
2022-09-01T03:56:26.087Z,15.67
2022-09-01T03:58:53.379Z,15.69
2022-09-01T04:01:20.097Z,15.70
2022-09-01T04:03:51.230Z,15.65
2022-09-01T04:06:23.894Z,15.56
2022-09-01T04:08:53.876Z,15.66
2022-09-01T04:11:24.131Z,15.58
2022-09-01T04:13:52.279Z,15.54
2022-09-01T04:16:49.330Z,15.52
2022-09-01T04:19:25.739Z,15.41
2022-09-01T04:21:57.635Z,15.41
2022-09-01T04:24:27.963Z,15.39
2022-09-01T04:26:58.611Z,15.31
2022-09-01T04:29:29.020Z,15.28
2022-09-01T04:32:02.554Z,15.20
2022-09-01T04:34:37.086Z,15.35
2022-09-01T04:37:18.676Z,15.27
2022-09-01T04:39:56.192Z,15.26
2022-09-01T04:42:29.003Z,15.12
2022-09-01T04:44:57.434Z,15.20
2022-09-01T04:47:35.366Z,15.21
2022-09-01T04:50:12.862Z,15.09
2022-09-01T04:52:40.328Z,15.13
2022-09-01T04:55:08.785Z,15.12
2022-09-01T04:57:36.436Z,15.07
2022-09-01T05:00:03.891Z,15.08
2022-09-01T05:02:30.746Z,15.12
2022-09-01T05:04:58.641Z,15.01
2022-09-01T05:07:25.062Z,15.04
2022-09-01T05:09:58.059Z,15.03
2022-09-01T05:12:27.801Z,15.10
2022-09-01T05:14:55.968Z,15.18
2022-09-01T05:17:22.359Z,15.04
2022-09-01T05:19:50.579Z,14.99
2022-09-01T05:22:22.040Z,15.05
2022-09-01T05:24:51.415Z,15.10
2022-09-01T05:27:22.825Z,14.94
2022-09-01T05:29:50.498Z,15.08
2022-09-01T05:32:16.980Z,14.93
2022-09-01T05:34:45.120Z,14.99
2022-09-01T05:37:14.512Z,15.08
2022-09-01T05:39:40.941Z,15.07
2022-09-01T05:42:10.322Z,15.19
2022-09-01T05:44:44.034Z,15.12
2022-09-01T05:47:14.797Z,15.10
2022-09-01T05:49:47.376Z,15.05
2022-09-01T05:52:13.771Z,15.15
2022-09-01T05:54:41.385Z,15.30
2022-09-01T05:57:30.427Z,15.22
2022-09-01T05:59:54.549Z,15.33
2022-09-01T06:02:22.885Z,15.34
2022-09-01T06:04:49.558Z,15.24
2022-09-01T06:07:17.549Z,15.50
2022-09-01T06:09:46.962Z,15.47
2022-09-01T06:12:18.970Z,15.42
2022-09-01T06:14:47.333Z,15.48
2022-09-01T06:17:16.359Z,15.54
2022-09-01T06:19:43.729Z,15.63
2022-09-01T06:22:10.963Z,15.65
2022-09-01T06:24:39.843Z,15.78
2022-09-01T06:27:10.024Z,15.89
2022-09-01T06:29:41.652Z,16.08
2022-09-01T06:32:10.368Z,16.29
2022-09-01T06:34:42.433Z,16.44
2022-09-01T06:37:10.889Z,16.62
2022-09-01T06:39:37.713Z,16.55
2022-09-01T06:42:06.247Z,16.66
2022-09-01T06:44:32.929Z,16.84
2022-09-01T06:47:02.392Z,17.03
2022-09-01T06:49:34.843Z,17.10
2022-09-01T06:52:02.975Z,17.24
2022-09-01T06:54:34.218Z,17.34
2022-09-01T06:58:03.510Z,17.36
2022-09-01T06:59:52.545Z,17.35
2022-09-01T07:02:22.258Z,17.16
2022-09-01T07:04:53.462Z,17.32
2022-09-01T07:10:18.572Z,17.68
2022-09-01T07:13:07.065Z,17.82
2022-09-01T07:18:26.924Z,18.26
2022-09-01T07:21:38.855Z,18.32
2022-09-01T07:24:08.529Z,18.20
2022-09-01T07:26:31.083Z,18.30
2022-09-01T07:29:01.477Z,17.94
2022-09-01T07:34:41.502Z,18.10
2022-09-01T07:37:17.315Z,19.60
2022-09-01T07:39:56.179Z,19.41
2022-09-01T07:45:28.486Z,20.52
2022-09-01T07:47:57.006Z,20.97
2022-09-01T07:51:34.343Z,21.11
2022-09-01T07:53:12.552Z,21.42
2022-09-01T07:55:43.823Z,21.67
2022-09-01T07:58:11.818Z,22.01
2022-09-01T08:00:39.970Z,21.87
2022-09-01T08:03:06.638Z,22.35
2022-09-01T08:05:33.274Z,22.66
2022-09-01T08:08:01.147Z,22.39
2022-09-01T08:10:28.345Z,22.67
2022-09-01T08:12:57.899Z,22.58
2022-09-01T08:16:06.518Z,23.17
2022-09-01T08:18:15.866Z,23.25
2022-09-01T08:20:47.680Z,23.63
2022-09-01T08:23:18.416Z,23.79
2022-09-01T08:25:47.067Z,23.61
2022-09-01T08:28:15.059Z,23.32
2022-09-01T08:30:52.220Z,24.47
2022-09-01T08:33:19.423Z,24.36
2022-09-01T08:35:48.055Z,24.56
2022-09-01T08:38:14.877Z,24.82
2022-09-01T08:40:43.668Z,24.94
2022-09-01T08:43:25.834Z,25.59
2022-09-01T08:45:58.050Z,25.59
2022-09-01T08:51:50.055Z,25.82
2022-09-01T08:54:30.009Z,26.25
2022-09-01T08:57:05.673Z,26.40
2022-09-01T08:59:32.214Z,25.89
2022-09-01T09:02:18.768Z,27.06
2022-09-01T09:04:59.735Z,26.49
2022-09-01T09:08:06.630Z,25.88
2022-09-01T09:10:58.810Z,25.81
2022-09-01T09:13:46.986Z,26.82
2022-09-01T09:16:21.481Z,26.28
2022-09-01T09:18:55.802Z,26.91
2022-09-01T09:21:40.180Z,26.45
2022-09-01T09:24:16.584Z,27.34
2022-09-01T09:26:52.445Z,27.45
2022-09-01T09:29:21.984Z,27.31
2022-09-01T09:32:02.754Z,27.06
2022-09-01T09:34:36.880Z,27.34
2022-09-01T09:37:31.026Z,28.01
2022-09-01T09:40:17.352Z,28.81
2022-09-01T09:42:54.555Z,28.70
2022-09-01T09:45:42.013Z,28.03
2022-09-01T09:48:26.261Z,28.15
2022-09-01T09:50:52.677Z,28.53
2022-09-01T09:53:28.237Z,28.21
2022-09-01T09:56:21.050Z,28.56
2022-09-01T09:58:48.731Z,29.62
2022-09-01T10:01:24.350Z,28.69
2022-09-01T10:03:57.001Z,29.09
2022-09-01T10:06:39.281Z,28.30
2022-09-01T10:09:09.221Z,28.16
2022-09-01T10:11:42.208Z,28.82
2022-09-01T10:14:22.927Z,29.08
2022-09-01T10:17:08.431Z,29.56
2022-09-01T10:19:35.967Z,29.90
2022-09-01T10:22:03.727Z,29.59
2022-09-01T10:24:38.835Z,29.96
2022-09-01T10:27:19.626Z,30.69
2022-09-01T10:30:12.233Z,29.16
2022-09-01T10:32:50.753Z,30.15
2022-09-01T10:35:26.928Z,29.93
2022-09-01T10:37:55.755Z,30.30
2022-09-01T10:40:30.984Z,30.34
2022-09-01T10:43:19.799Z,29.29
2022-09-01T10:45:51.234Z,30.89
2022-09-01T10:48:32.070Z,30.83
2022-09-01T10:51:18.781Z,29.79
2022-09-01T10:53:47.032Z,30.29
2022-09-01T10:56:50.802Z,30.10
2022-09-01T10:59:32.807Z,31.35
2022-09-01T11:02:23.547Z,31.31
2022-09-01T11:04:52.148Z,29.98
2022-09-01T11:07:29.712Z,29.96
2022-09-01T11:10:31.364Z,29.94
2022-09-01T11:13:11.225Z,31.20
2022-09-01T11:15:40.381Z,30.75
2022-09-01T11:18:17.506Z,30.04
2022-09-01T11:20:46.729Z,30.54
2022-09-01T11:23:30.966Z,31.03
2022-09-01T11:26:21.608Z,31.34
2022-09-01T11:28:48.780Z,30.87
2022-09-01T11:31:22.818Z,30.58
2022-09-01T11:34:10.301Z,31.06
2022-09-01T11:36:48.585Z,31.73
2022-09-01T11:39:18.051Z,31.61
2022-09-01T11:42:04.525Z,30.65
2022-09-01T11:44:37.844Z,31.66
2022-09-01T11:47:16.689Z,31.02
2022-09-01T11:49:58.703Z,31.99
2022-09-01T11:52:30.352Z,31.23
2022-09-01T11:54:58.460Z,30.60
2022-09-01T11:57:29.123Z,31.59
2022-09-01T11:59:58.319Z,30.99
2022-09-01T12:02:33.529Z,30.65
2022-09-01T12:05:23.414Z,30.52
2022-09-01T12:07:50.185Z,30.79
2022-09-01T12:10:32.283Z,29.69
2022-09-01T12:13:10.226Z,30.78
2022-09-01T12:15:55.231Z,31.88
2022-09-01T12:18:45.273Z,31.23
2022-09-01T12:21:23.172Z,31.10
2022-09-01T12:23:50.100Z,30.11
2022-09-01T12:26:23.651Z,30.81
2022-09-01T12:28:50.930Z,30.39
2022-09-01T12:31:21.598Z,31.07
2022-09-01T12:33:48.461Z,30.80
2022-09-01T12:36:31.718Z,30.25
2022-09-01T12:39:18.084Z,30.68
2022-09-01T12:41:47.308Z,30.77
2022-09-01T12:44:44.562Z,30.68
2022-09-01T12:47:16.152Z,30.72
2022-09-01T12:49:50.514Z,30.79
2022-09-01T12:52:19.917Z,30.19
2022-09-01T12:54:48.268Z,31.04
2022-09-01T12:57:28.009Z,30.36
2022-09-01T13:00:19.873Z,30.24
2022-09-01T13:02:50.562Z,30.21
2022-09-01T13:05:31.122Z,30.04
2022-09-01T13:08:05.005Z,30.09
2022-09-01T13:10:38.042Z,30.62
2022-09-01T13:13:06.698Z,30.62
2022-09-01T13:15:35.210Z,30.37
2022-09-01T13:18:01.708Z,30.16
2022-09-01T13:20:28.190Z,30.25
2022-09-01T13:22:54.805Z,29.32
2022-09-01T13:25:22.758Z,29.53
2022-09-01T13:27:50.050Z,29.67
2022-09-01T13:30:21.819Z,29.06
2022-09-01T13:35:36.624Z,28.66
2022-09-01T13:38:03.046Z,28.98
2022-09-01T13:40:29.711Z,29.03
2022-09-01T13:42:56.186Z,29.00
2022-09-01T13:45:28.506Z,28.56
2022-09-01T13:53:29.887Z,29.10
2022-09-01T13:58:23.896Z,28.45
2022-09-01T14:00:50.995Z,28.41
2022-09-01T14:03:20.882Z,28.63
2022-09-01T14:05:49.830Z,28.80
2022-09-01T14:08:19.037Z,28.46
2022-09-01T14:10:50.664Z,28.55
2022-09-01T14:13:18.300Z,28.46
2022-09-01T14:15:44.771Z,28.07
2022-09-01T14:18:11.304Z,28.30
2022-09-01T14:20:42.117Z,28.56
2022-09-01T14:23:10.857Z,27.75
2022-09-01T14:25:42.081Z,27.39
2022-09-01T14:28:08.644Z,27.67
2022-09-01T14:30:35.204Z,27.86
2022-09-01T14:33:03.766Z,27.85
2022-09-01T14:35:33.677Z,27.64
2022-09-01T14:38:02.816Z,27.60
2022-09-01T14:40:29.426Z,27.87
2022-09-01T14:42:56.202Z,27.54
2022-09-01T14:45:25.945Z,27.23
2022-09-01T14:47:55.184Z,27.34
2022-09-01T14:50:23.380Z,26.86
2022-09-01T14:52:53.073Z,26.93
2022-09-01T14:55:21.131Z,26.52
2022-09-01T14:57:47.547Z,26.72
2022-09-01T15:00:14.239Z,26.58
2022-09-01T15:02:42.454Z,26.84
2022-09-01T15:05:09.993Z,26.87
2022-09-01T15:07:36.777Z,26.64
2022-09-01T15:10:06.408Z,26.68
2022-09-01T15:12:32.928Z,26.35
2022-09-01T15:15:00.424Z,25.90
2022-09-01T15:17:28.640Z,26.10
2022-09-01T15:19:55.127Z,26.33
2022-09-01T15:22:21.947Z,26.16
2022-09-01T15:24:48.527Z,26.50
2022-09-01T15:27:15.060Z,26.16
2022-09-01T15:29:46.222Z,26.09
2022-09-01T15:32:20.617Z,25.87
2022-09-01T15:34:55.047Z,26.02
2022-09-01T15:37:21.484Z,25.99
2022-09-01T15:39:47.881Z,25.82
2022-09-01T15:44:43.544Z,25.87
2022-09-01T15:47:10.027Z,25.83
2022-09-01T15:49:36.434Z,25.62
2022-09-01T15:52:02.961Z,25.62
2022-09-01T15:54:30.760Z,25.69
2022-09-01T15:56:57.385Z,25.53
2022-09-01T15:59:23.779Z,25.67
2022-09-01T16:01:53.089Z,25.68
2022-09-01T16:04:24.053Z,25.69
2022-09-01T16:06:56.452Z,25.73
2022-09-01T16:09:23.074Z,25.47
2022-09-01T16:11:49.804Z,25.53
2022-09-01T16:14:16.461Z,25.32
2022-09-01T16:16:56.733Z,25.29
2022-09-01T16:19:53.981Z,25.32
2022-09-01T16:22:36.868Z,25.45
2022-09-01T16:25:31.851Z,25.50
2022-09-01T16:28:07.113Z,25.21
2022-09-01T16:30:34.377Z,25.28
2022-09-01T16:33:03.892Z,25.11
2022-09-01T16:35:49.059Z,25.21
2022-09-01T16:38:33.870Z,25.08
2022-09-01T16:41:09.680Z,24.97
2022-09-01T16:43:45.816Z,25.09
2022-09-01T16:46:22.778Z,24.82
2022-09-01T16:48:51.964Z,24.87
2022-09-01T16:51:34.853Z,24.84
2022-09-01T16:54:45.774Z,24.71
2022-09-01T16:57:33.668Z,24.60
2022-09-01T17:00:02.944Z,24.47
2022-09-01T17:02:40.566Z,24.74
2022-09-01T17:05:20.021Z,24.64
2022-09-01T17:08:10.997Z,24.56
2022-09-01T17:11:12.182Z,24.34
2022-09-01T17:13:42.631Z,24.27
2022-09-01T17:16:15.674Z,24.25
2022-09-01T17:18:51.172Z,24.33
2022-09-01T17:21:35.445Z,24.19
2022-09-01T17:24:34.790Z,24.21
2022-09-01T17:27:08.456Z,24.02
2022-09-01T17:29:47.976Z,24.09
2022-09-01T17:32:50.596Z,23.98
2022-09-01T17:35:32.027Z,23.96
2022-09-01T17:38:14.006Z,24.10
2022-09-01T17:41:11.526Z,23.96
2022-09-01T17:44:12.574Z,23.80
2022-09-01T17:46:49.209Z,23.78
2022-09-01T17:49:37.863Z,23.75
2022-09-01T17:52:23.058Z,23.67
2022-09-01T17:55:07.663Z,23.53
2022-09-01T17:58:02.970Z,23.46
2022-09-01T18:00:59.901Z,23.39
2022-09-01T18:03:49.200Z,23.12
2022-09-01T18:06:35.367Z,23.08
2022-09-01T18:09:02.873Z,22.93
2022-09-01T18:12:09.727Z,22.93
2022-09-01T18:14:41.380Z,22.82
2022-09-01T18:17:17.530Z,22.72
2022-09-01T18:19:48.320Z,22.72
2022-09-01T18:22:21.127Z,22.66
2022-09-01T18:24:51.285Z,22.39
2022-09-01T18:27:17.745Z,22.51
2022-09-01T18:29:47.179Z,22.44
2022-09-01T18:32:22.890Z,22.33
2022-09-01T18:35:18.897Z,22.30
2022-09-01T18:37:59.504Z,22.22
2022-09-01T18:40:37.419Z,22.17
2022-09-01T18:43:32.966Z,21.97
2022-09-01T18:46:07.782Z,21.85
2022-09-01T18:49:05.127Z,21.97
2022-09-01T18:51:58.060Z,21.87
2022-09-01T18:54:30.537Z,21.86
2022-09-01T18:57:01.189Z,21.83
2022-09-01T18:59:37.057Z,21.80
2022-09-01T19:02:22.701Z,21.79
2022-09-01T19:04:56.306Z,21.61
2022-09-01T19:07:38.215Z,21.56
2022-09-01T19:10:18.330Z,21.55
2022-09-01T19:13:28.020Z,21.43
2022-09-01T19:16:13.932Z,21.22
2022-09-01T19:19:18.394Z,21.25
2022-09-01T19:21:49.258Z,21.15
2022-09-01T19:24:42.282Z,21.25
2022-09-01T19:27:20.001Z,21.07
2022-09-01T19:29:56.032Z,21.01
2022-09-01T19:32:25.834Z,20.96
2022-09-01T19:35:02.748Z,20.84
2022-09-01T19:37:29.243Z,20.81
2022-09-01T19:39:55.682Z,20.82
2022-09-01T19:42:45.682Z,20.76
2022-09-01T19:45:37.091Z,20.63
2022-09-01T19:48:15.808Z,20.63
2022-09-01T19:51:00.695Z,20.49
2022-09-01T19:53:38.373Z,20.51
2022-09-01T19:56:16.802Z,20.49
2022-09-01T19:59:01.089Z,20.44
2022-09-01T20:01:37.700Z,20.42
2022-09-01T20:04:25.116Z,20.26
2022-09-01T20:06:56.554Z,20.25
2022-09-01T20:09:36.843Z,20.20
2022-09-01T20:12:14.558Z,20.22
2022-09-01T20:14:49.964Z,20.15
2022-09-01T20:17:23.568Z,19.98
2022-09-01T20:20:08.608Z,19.95
2022-09-01T20:22:41.196Z,19.97
2022-09-01T20:25:12.847Z,19.93
2022-09-01T20:27:51.585Z,19.85
2022-09-01T20:30:24.690Z,19.78
2022-09-01T20:32:58.268Z,19.78
2022-09-01T20:35:50.114Z,19.62
2022-09-01T20:39:03.897Z,19.76
2022-09-01T20:41:56.731Z,19.63
2022-09-01T20:44:35.852Z,19.59
2022-09-01T20:47:05.438Z,19.55
2022-09-01T20:49:34.846Z,19.46
2022-09-01T20:52:33.772Z,19.48
2022-09-01T20:55:30.392Z,19.57
2022-09-01T20:58:25.896Z,19.42
2022-09-01T21:01:17.927Z,19.24
2022-09-01T21:03:50.666Z,19.24
2022-09-01T21:06:48.507Z,19.29
2022-09-01T21:09:27.669Z,19.19
2022-09-01T21:12:32.290Z,19.32
2022-09-01T21:15:14.036Z,19.20
2022-09-01T21:17:49.708Z,19.18
2022-09-01T21:20:30.167Z,19.12
2022-09-01T21:22:56.649Z,19.11
2022-09-01T21:25:23.209Z,19.11
2022-09-01T21:27:55.419Z,19.06
2022-09-01T21:30:24.107Z,19.01
2022-09-01T21:32:53.802Z,18.95
2022-09-01T21:35:21.958Z,18.76
2022-09-01T21:37:48.788Z,18.85
2022-09-01T21:40:16.630Z,18.81
2022-09-01T21:42:51.459Z,18.89
2022-09-01T21:45:18.961Z,18.81
2022-09-01T21:47:46.788Z,18.69
2022-09-01T21:50:15.461Z,18.67
2022-09-01T21:52:41.987Z,18.67
2022-09-01T21:55:09.121Z,18.56
2022-09-01T21:57:36.749Z,18.61
2022-09-01T22:00:10.094Z,18.62
2022-09-01T22:02:37.332Z,18.65
2022-09-01T22:05:05.911Z,18.59
2022-09-01T22:07:40.248Z,18.59
2022-09-01T22:10:10.077Z,18.58
2022-09-01T22:12:37.767Z,18.56
2022-09-01T22:15:06.629Z,18.49
2022-09-01T22:17:33.126Z,18.53
2022-09-01T22:20:00.966Z,18.46
2022-09-01T22:22:27.356Z,18.45
2022-09-01T22:24:53.977Z,18.44
2022-09-01T22:27:20.921Z,18.49
2022-09-01T22:29:47.312Z,18.40
2022-09-01T22:32:13.762Z,18.48
2022-09-01T22:34:43.563Z,18.46
2022-09-01T22:37:10.538Z,18.33
2022-09-01T22:39:37.118Z,18.33
2022-09-01T22:42:03.839Z,18.29
2022-09-01T22:44:30.298Z,18.31
2022-09-01T22:46:57.040Z,18.29
2022-09-01T22:49:23.758Z,18.33
2022-09-01T22:51:50.343Z,18.31
2022-09-01T22:54:16.962Z,18.28
2022-09-01T22:56:43.375Z,18.21
2022-09-01T22:59:13.112Z,18.05
2022-09-01T23:01:42.718Z,18.16
2022-09-01T23:04:11.653Z,18.05
2022-09-01T23:06:41.562Z,18.02
2022-09-01T23:09:08.619Z,17.86
2022-09-01T23:11:35.214Z,17.98
2022-09-01T23:14:02.274Z,17.89
2022-09-01T23:16:28.854Z,17.86
2022-09-01T23:18:56.116Z,17.94
2022-09-01T23:21:26.678Z,17.91
2022-09-01T23:23:57.393Z,17.91
2022-09-01T23:26:26.336Z,17.95
2022-09-01T23:28:53.337Z,17.79
2022-09-01T23:31:23.129Z,17.87
2022-09-01T23:33:49.590Z,17.84
2022-09-01T23:36:20.981Z,17.68
2022-09-01T23:38:48.877Z,17.81
2022-09-01T23:41:23.064Z,17.92
2022-09-01T23:43:51.688Z,17.86
2022-09-01T23:46:20.670Z,17.72
2022-09-01T23:48:47.399Z,17.74
2022-09-01T23:51:14.088Z,17.80
2022-09-01T23:53:40.843Z,17.77
2022-09-01T23:56:17.317Z,17.82
2022-09-01T23:58:44.206Z,17.90
